Time;durP1;ratioP1;P1;durP2;ratioP2;P2;SDS_P1;SDS_P2;PMS_P1;PMS_P2;Temp;Humidity;BMP_temperature;BMP_pressure;BME280_temperature;BME280_humidity;BME280_pressure;Samples;Min_cycle;Max_cycle;Signal;HPM_P1;HPM_P2
2023/07/11 00:02:14;;;;;;;29.63;17.23;;;18.00;99.90;;;;;;5054098;28;20417;-64
2023/07/11 00:04:40;;;;;;;21.13;14.05;;;18.00;99.90;;;;;;5054340;28;20029;-64
2023/07/11 00:07:06;;;;;;;17.73;14.15;;;18.00;99.90;;;;;;5054515;28;20059;-63
2023/07/11 00:09:32;;;;;;;20.63;14.00;;;18.00;99.90;;;;;;5054415;28;20035;-64
2023/07/11 00:11:58;;;;;;;18.95;13.20;;;17.90;99.90;;;;;;5053975;28;20021;-64
2023/07/11 00:14:24;;;;;;;24.05;13.90;;;17.90;99.90;;;;;;5054401;28;20455;-64
2023/07/11 00:16:50;;;;;;;19.00;13.48;;;17.90;99.90;;;;;;5054308;28;20025;-64
2023/07/11 00:19:19;;;;;;;20.50;13.80;;;17.90;99.90;;;;;;5054302;28;20467;-65
2023/07/11 00:21:46;;;;;;;19.77;13.63;;;17.90;99.90;;;;;;5054386;28;20053;-64
2023/07/11 00:24:12;;;;;;;19.05;14.43;;;17.80;99.90;;;;;;5054129;28;20040;-64
2023/07/11 00:26:38;;;;;;;25.60;16.33;;;17.80;99.90;;;;;;5036278;28;20037;-64
2023/07/11 00:29:21;;;;;;;21.75;15.73;;;17.90;99.90;;;;;;5054232;28;20501;-64
2023/07/11 00:31:47;;;;;;;25.55;16.45;;;17.80;99.90;;;;;;5054193;28;20033;-64
2023/07/11 00:34:13;;;;;;;27.30;15.93;;;17.70;99.90;;;;;;5054070;28;20049;-64
2023/07/11 00:36:39;;;;;;;21.48;14.38;;;17.70;99.90;;;;;;5054129;28;20025;-64
2023/07/11 00:39:05;;;;;;;21.95;13.93;;;17.60;99.90;;;;;;5036249;28;20029;-64
2023/07/11 00:41:32;;;;;;;20.42;14.52;;;17.60;99.90;;;;;;5036180;28;20100;-64
2023/07/11 00:43:58;;;;;;;18.35;13.93;;;17.60;99.90;;;;;;5053994;28;20033;-64
2023/07/11 00:46:24;;;;;;;17.65;13.98;;;17.50;99.90;;;;;;5053963;28;20059;-64
2023/07/11 00:48:53;;;;;;;18.98;13.48;;;17.60;99.90;;;;;;5053883;28;20080;-64
2023/07/11 00:51:33;;;;;;;19.40;13.88;;;17.50;99.90;;;;;;5054136;28;20025;-65
2023/07/11 00:54:00;;;;;;;19.45;14.90;;;17.60;99.90;;;;;;5035943;28;20029;-64
2023/07/11 00:56:30;;;;;;;20.40;13.95;;;17.60;99.90;;;;;;5069065;28;20029;-64
2023/07/11 00:58:57;;;;;;;20.02;13.90;;;17.60;99.90;;;;;;5052586;28;20481;-64
2023/07/11 01:01:24;;;;;;;23.95;16.13;;;17.50;99.90;;;;;;5053825;28;20025;-64
2023/07/11 01:03:52;;;;;;;24.40;16.50;;;17.40;99.90;;;;;;5053877;28;20029;-64
2023/07/11 01:06:22;;;;;;;22.80;17.00;;;17.40;99.90;;;;;;5052559;28;20040;-65
2023/07/11 01:08:50;;;;;;;21.17;15.25;;;17.40;99.90;;;;;;5053895;28;20521;-64
2023/07/11 01:11:17;;;;;;;21.45;14.93;;;17.30;99.90;;;;;;5053669;28;20505;-64
2023/07/11 01:13:43;;;;;;;20.67;15.43;;;17.20;99.90;;;;;;5052568;28;20029;-64
2023/07/11 01:16:09;;;;;;;22.77;15.88;;;17.30;99.90;;;;;;5035709;28;20459;-64
2023/07/11 01:18:36;;;;;;;22.02;15.05;;;17.20;99.90;;;;;;5053332;28;20075;-65
2023/07/11 01:21:06;;;;;;;20.80;14.02;;;17.20;99.90;;;;;;5052477;28;20111;-65
2023/07/11 01:23:34;;;;;;;23.02;14.63;;;17.20;99.90;;;;;;5053554;28;20052;-64
2023/07/11 01:26:05;;;;;;;20.70;15.40;;;17.20;99.90;;;;;;5055436;28;20033;-64
2023/07/11 01:28:31;;;;;;;19.17;13.40;;;17.20;99.90;;;;;;5057029;28;20037;-65
2023/07/11 01:30:57;;;;;;;20.23;14.40;;;17.20;99.90;;;;;;5055922;28;20043;-64
2023/07/11 01:33:25;;;;;;;18.35;14.93;;;17.10;99.90;;;;;;5055778;28;20029;-65
2023/07/11 01:35:52;;;;;;;20.17;14.55;;;17.10;99.90;;;;;;5057175;28;20024;-64
2023/07/11 01:38:20;;;;;;;19.52;14.40;;;17.10;99.90;;;;;;5055494;28;20040;-64
2023/07/11 01:40:47;;;;;;;18.08;14.35;;;17.10;99.90;;;;;;5055830;28;20090;-65
2023/07/11 01:43:15;;;;;;;20.33;12.82;;;17.00;99.90;;;;;;5057001;28;20063;-65
2023/07/11 01:45:41;;;;;;;19.42;13.73;;;17.00;99.90;;;;;;5056848;28;20072;-64
2023/07/11 01:48:07;;;;;;;24.55;15.45;;;17.00;99.90;;;;;;5055582;28;20107;-65
2023/07/11 01:50:33;;;;;;;20.33;15.13;;;17.00;99.90;;;;;;5056790;28;20028;-64
2023/07/11 01:52:59;;;;;;;18.17;14.15;;;17.00;99.90;;;;;;5056962;28;20513;-65
2023/07/11 01:55:25;;;;;;;25.73;14.88;;;17.00;99.90;;;;;;5048493;28;20032;-65
2023/07/11 01:57:52;;;;;;;20.15;14.43;;;17.00;99.90;;;;;;5035461;28;20049;-65
2023/07/11 02:00:19;;;;;;;19.23;13.77;;;16.90;99.90;;;;;;5035568;28;20478;-64
2023/07/11 02:02:51;;;;;;;20.35;14.13;;;16.90;99.90;;;;;;5036785;28;20125;-64
2023/07/11 02:05:19;;;;;;;24.05;15.48;;;16.90;99.90;;;;;;5035119;28;20034;-65
2023/07/11 02:07:45;;;;;;;19.70;14.35;;;16.80;99.90;;;;;;5035538;28;20060;-65
2023/07/11 02:10:11;;;;;;;20.65;14.68;;;16.80;99.90;;;;;;5036568;28;20033;-65
2023/07/11 02:12:37;;;;;;;20.70;14.60;;;16.70;99.90;;;;;;5036497;28;20463;-65
2023/07/11 02:15:04;;;;;;;22.52;14.73;;;16.80;99.90;;;;;;5035257;28;20045;-65
2023/07/11 02:17:30;;;;;;;20.88;14.95;;;16.80;99.90;;;;;;5036562;28;20033;-64
2023/07/11 02:19:55;;;;;;;22.55;15.02;;;16.80;99.90;;;;;;5036364;28;20052;-65
2023/07/11 02:22:22;;;;;;;22.45;14.88;;;16.80;99.90;;;;;;5035209;28;20127;-65
2023/07/11 02:24:48;;;;;;;21.40;14.90;;;16.80;99.90;;;;;;5036343;28;20033;-65
2023/07/11 02:27:14;;;;;;;20.33;14.77;;;16.80;99.90;;;;;;5035012;28;20112;-64
2023/07/11 02:29:40;;;;;;;21.67;14.98;;;16.70;99.90;;;;;;5036267;28;20096;-65
2023/07/11 02:32:06;;;;;;;22.13;15.95;;;16.70;99.90;;;;;;5036190;28;20021;-65
2023/07/11 02:34:32;;;;;;;22.05;15.50;;;16.60;99.90;;;;;;5036118;28;20021;-65
2023/07/11 02:36:58;;;;;;;25.20;15.48;;;16.60;99.90;;;;;;5035677;28;20022;-64
2023/07/11 02:39:24;;;;;;;21.67;15.38;;;16.60;99.90;;;;;;5036181;28;20056;-65
2023/07/11 02:41:50;;;;;;;21.20;14.90;;;16.50;99.90;;;;;;5035889;28;20103;-65
2023/07/11 02:44:16;;;;;;;22.83;14.50;;;16.50;99.90;;;;;;5036073;28;20044;-65
2023/07/11 02:46:42;;;;;;;22.92;14.32;;;16.50;99.90;;;;;;5035872;28;20041;-65
2023/07/11 02:49:08;;;;;;;21.95;14.70;;;16.50;99.90;;;;;;5035627;28;20354;-65
2023/07/11 02:51:39;;;;;;;19.33;14.10;;;16.50;99.90;;;;;;5035994;28;20032;-65
2023/07/11 02:54:06;;;;;;;22.83;14.57;;;16.40;99.90;;;;;;5035840;28;20545;-65
2023/07/11 02:56:33;;;;;;;21.27;15.98;;;16.40;99.90;;;;;;5050332;28;20029;-65
2023/07/11 02:59:00;;;;;;;20.52;14.65;;;16.40;99.90;;;;;;5054298;28;20052;-65
2023/07/11 03:01:31;;;;;;;20.73;14.40;;;16.30;99.90;;;;;;5055647;28;20033;-65
2023/07/11 03:03:57;;;;;;;20.52;15.63;;;16.30;99.90;;;;;;5055596;28;20033;-65
2023/07/11 03:06:23;;;;;;;23.35;15.85;;;16.30;99.90;;;;;;5055602;28;20482;-65
2023/07/11 03:08:49;;;;;;;22.67;15.75;;;16.30;99.90;;;;;;5055359;28;20025;-65
2023/07/11 03:11:15;;;;;;;19.80;15.48;;;16.30;99.90;;;;;;5055303;28;20051;-65
2023/07/11 03:13:42;;;;;;;21.23;15.15;;;16.30;99.90;;;;;;5055417;28;20137;-65
2023/07/11 03:16:08;;;;;;;23.63;15.07;;;16.30;99.90;;;;;;5055214;28;20029;-65
2023/07/11 03:18:34;;;;;;;20.27;14.63;;;16.30;99.90;;;;;;5055269;28;20029;-65
2023/07/11 03:21:01;;;;;;;21.45;15.02;;;16.40;99.90;;;;;;5055408;28;20025;-65
2023/07/11 03:23:28;;;;;;;22.85;15.65;;;16.40;99.90;;;;;;5055187;28;20064;-65
2023/07/11 03:25:54;;;;;;;18.92;14.88;;;16.40;99.90;;;;;;5055054;28;20021;-65
2023/07/11 03:28:21;;;;;;;21.30;14.82;;;16.40;99.90;;;;;;5055071;28;20050;-65
2023/07/11 03:30:47;;;;;;;19.08;15.55;;;16.30;99.90;;;;;;5053666;28;20032;-65
2023/07/11 03:33:14;;;;;;;18.88;15.13;;;16.30;99.90;;;;;;5055110;28;20032;-65
2023/07/11 03:35:40;;;;;;;19.20;15.80;;;16.30;99.90;;;;;;5054966;28;20450;-65
2023/07/11 03:38:06;;;;;;;21.15;15.02;;;16.30;99.90;;;;;;5053579;28;20021;-65
2023/07/11 03:40:32;;;;;;;23.33;15.35;;;16.40;99.90;;;;;;5055011;28;20646;-65
2023/07/11 03:42:58;;;;;;;25.13;16.92;;;16.50;99.90;;;;;;5053664;28;20505;-65
2023/07/11 03:45:24;;;;;;;25.45;17.10;;;16.50;99.90;;;;;;5054676;28;20029;-65
2023/07/11 03:47:50;;;;;;;22.33;17.15;;;16.50;99.90;;;;;;5054368;28;20032;-65
2023/07/11 03:50:16;;;;;;;26.08;17.70;;;16.50;99.90;;;;;;5054709;28;20088;-65
2023/07/11 03:52:42;;;;;;;21.20;16.42;;;16.50;99.90;;;;;;5053425;28;20303;-65
2023/07/11 03:55:08;;;;;;;24.45;16.70;;;16.50;99.90;;;;;;5050270;28;20330;-65
2023/07/11 03:57:34;;;;;;;22.35;16.52;;;16.60;99.90;;;;;;5033425;28;20132;-65
2023/07/11 04:00:00;;;;;;;19.92;16.80;;;16.60;99.90;;;;;;5034686;28;20067;-65
2023/07/11 04:02:26;;;;;;;22.65;16.38;;;16.70;99.90;;;;;;5034628;28;20033;-65
2023/07/11 04:04:52;;;;;;;21.73;16.08;;;16.80;99.90;;;;;;5033321;28;20534;-65
2023/07/11 04:07:18;;;;;;;18.92;15.55;;;16.80;99.90;;;;;;5033363;28;20109;-65
2023/07/11 04:09:44;;;;;;;21.92;15.57;;;16.80;99.90;;;;;;5034402;28;20033;-65
2023/07/11 04:12:10;;;;;;;21.13;16.42;;;16.80;99.90;;;;;;5034438;28;20030;-65
2023/07/11 04:14:37;;;;;;;20.02;15.52;;;16.90;99.90;;;;;;5034351;28;20022;-65
2023/07/11 04:17:03;;;;;;;20.20;16.45;;;16.90;99.90;;;;;;5034573;28;20037;-64
2023/07/11 04:19:29;;;;;;;31.33;16.95;;;16.90;99.90;;;;;;5033170;28;20037;-65
2023/07/11 04:21:55;;;;;;;28.60;19.05;;;17.00;99.90;;;;;;5034430;28;20033;-65
2023/07/11 04:24:20;;;;;;;32.63;23.92;;;17.20;99.90;;;;;;5033146;28;20105;-65
2023/07/11 04:26:46;;;;;;;39.17;25.60;;;17.10;99.90;;;;;;5034287;28;20065;-65
2023/07/11 04:29:12;;;;;;;28.48;19.33;;;17.20;99.90;;;;;;5016605;28;20110;-65
2023/07/11 04:31:38;;;;;;;29.60;17.50;;;17.30;99.90;;;;;;5033081;28;20387;-65
2023/07/11 04:34:05;;;;;;;30.67;18.23;;;17.40;99.90;;;;;;5033133;28;20045;-65
2023/07/11 04:36:32;;;;;;;29.73;16.83;;;17.40;99.90;;;;;;5034263;28;20025;-65
2023/07/11 04:38:57;;;;;;;30.50;16.65;;;17.40;99.90;;;;;;5034291;28;20048;-64
2023/07/11 04:41:23;;;;;;;29.27;16.00;;;17.40;99.90;;;;;;5034068;28;20101;-65
2023/07/11 04:43:49;;;;;;;27.85;16.75;;;17.40;99.90;;;;;;5034223;28;20068;-65
2023/07/11 04:46:15;;;;;;;29.75;16.52;;;17.60;99.90;;;;;;5034257;28;20395;-65
2023/07/11 04:48:41;;;;;;;23.88;16.45;;;17.80;99.90;;;;;;5034035;28;20026;-65
2023/07/11 04:51:10;;;;;;;30.45;16.98;;;17.90;99.90;;;;;;5034071;28;20025;-65
2023/07/11 04:53:36;;;;;;;24.65;15.60;;;18.00;99.90;;;;;;5032978;28;20121;-65
2023/07/11 04:56:07;;;;;;;30.38;17.65;;;18.00;99.90;;;;;;5045850;28;20166;-65
2023/07/11 04:58:34;;;;;;;30.52;16.48;;;18.10;99.90;;;;;;5070310;28;20497;-65
2023/07/11 05:01:12;;;;;;;30.77;17.67;;;18.30;99.90;;;;;;5077872;28;20032;-65
2023/07/11 05:03:39;;;;;;;29.60;19.55;;;18.20;99.90;;;;;;5077629;28;20028;-65
2023/07/11 05:06:05;;;;;;;29.70;17.80;;;18.20;99.90;;;;;;5077944;28;20024;-65
2023/07/11 05:08:32;;;;;;;26.45;17.50;;;18.30;99.90;;;;;;5059626;28;20491;-65
2023/07/11 05:11:03;;;;;;;32.80;18.15;;;18.40;99.90;;;;;;5077352;28;20074;-65
2023/07/11 05:13:31;;;;;;;29.27;16.85;;;18.50;99.90;;;;;;5077675;28;20475;-65
2023/07/11 05:16:08;;;;;;;24.85;16.85;;;18.80;99.90;;;;;;5059655;28;20504;-65
2023/07/11 05:18:35;;;;;;;26.70;16.98;;;18.90;99.90;;;;;;5077523;28;20030;-65
2023/07/11 05:21:01;;;;;;;28.75;17.80;;;19.00;99.90;;;;;;5077223;28;20028;-65
2023/07/11 05:23:29;;;;;;;30.83;17.10;;;19.20;99.90;;;;;;5077287;28;20082;-65
2023/07/11 05:25:56;;;;;;;27.83;17.52;;;19.20;99.90;;;;;;5077540;28;20050;-65
2023/07/11 05:28:24;;;;;;;23.75;16.15;;;19.30;99.90;;;;;;5076458;28;20398;-65
2023/07/11 05:31:00;;;;;;;33.10;17.05;;;19.40;99.90;;;;;;5072315;28;20058;-65
2023/07/11 05:33:29;;;;;;;32.03;16.75;;;19.50;99.90;;;;;;5057834;28;20025;-65
2023/07/11 05:38:52;;;;;;;25.67;16.70;;;19.70;99.90;;;;;;5057543;28;20025;-65
2023/07/11 05:41:19;;;;;;;29.17;16.85;;;19.80;99.90;;;;;;5056720;28;20033;-67
2023/07/11 05:43:46;;;;;;;34.85;16.88;;;19.90;99.90;;;;;;5056803;28;20029;-64
2023/07/11 05:46:12;;;;;;;22.52;15.57;;;19.90;99.90;;;;;;5043544;28;20088;-64
2023/07/11 05:48:39;;;;;;;25.55;16.70;;;19.90;99.90;;;;;;5087453;28;20083;-65
2023/07/11 05:51:07;;;;;;;23.58;14.52;;;20.10;99.90;;;;;;5073281;28;20056;-65
2023/07/11 05:53:34;;;;;;;23.75;14.93;;;20.30;99.90;;;;;;5063696;28;20108;-65
2023/07/11 05:56:00;;;;;;;31.23;17.40;;;20.30;99.90;;;;;;5080660;28;20060;-65
2023/07/11 05:58:28;;;;;;;30.08;16.75;;;20.30;99.90;;;;;;5076392;28;20604;-65
2023/07/11 06:00:55;;;;;;;29.75;18.55;;;20.30;99.90;;;;;;5073845;28;20024;-64
2023/07/11 06:03:23;;;;;;;29.98;16.42;;;20.50;99.90;;;;;;5076316;28;20063;-65
2023/07/11 06:05:53;;;;;;;28.77;16.58;;;20.60;99.90;;;;;;5059017;28;20357;-65
2023/07/11 06:08:19;;;;;;;26.02;15.32;;;20.80;99.90;;;;;;5058665;28;20059;-65
2023/07/11 06:10:45;;;;;;;29.05;17.08;;;20.90;99.90;;;;;;5066291;28;20064;-65
2023/07/11 06:13:13;;;;;;;26.77;16.63;;;21.00;99.90;;;;;;5057122;28;20081;-65
2023/07/11 06:15:41;;;;;;;30.85;15.88;;;21.10;99.90;;;;;;5063043;28;20032;-65
2023/07/11 06:18:14;;;;;;;32.27;15.90;;;21.00;99.90;;;;;;5045738;28;20581;-65
2023/07/11 06:20:43;;;;;;;27.33;15.00;;;21.20;99.90;;;;;;5068832;28;20364;-65
2023/07/11 06:23:23;;;;;;;48.83;16.60;;;21.20;99.90;;;;;;5061520;28;20025;-66
2023/07/11 06:26:00;;;;;;;22.80;14.57;;;21.40;99.90;;;;;;5067652;28;20023;-65
2023/07/11 06:28:35;;;;;;;27.75;16.60;;;21.60;99.90;;;;;;5050090;28;20029;-66
2023/07/11 06:31:04;;;;;;;34.88;16.27;;;21.90;99.90;;;;;;5037662;28;20492;-66
2023/07/11 06:33:31;;;;;;;36.70;15.13;;;22.00;99.90;;;;;;5049123;28;20048;-66
2023/07/11 06:36:00;;;;;;;36.42;17.50;;;22.00;99.90;;;;;;5045209;28;20107;-66
2023/07/11 06:38:26;;;;;;;39.47;16.48;;;22.10;99.90;;;;;;5052128;28;20052;-66
2023/07/11 06:40:56;;;;;;;37.40;16.17;;;22.40;99.90;;;;;;5068418;28;20181;-66
2023/07/11 06:43:24;;;;;;;39.60;16.33;;;22.60;99.90;;;;;;5057669;28;20880;-66
2023/07/11 06:45:59;;;;;;;44.53;15.93;;;22.80;99.90;;;;;;5064360;28;20033;-66
2023/07/11 06:48:30;;;;;;;29.90;12.70;;;23.00;99.90;;;;;;5069943;28;20044;-66
2023/07/11 06:51:01;;;;;;;31.90;15.10;;;23.30;99.90;;;;;;5058590;28;20039;-66
2023/07/11 06:53:30;;;;;;;30.70;14.43;;;23.40;99.90;;;;;;5061545;28;20028;-66
2023/07/11 06:55:56;;;;;;;33.08;18.20;;;23.70;99.90;;;;;;5066556;28;20036;-66
2023/07/11 06:58:23;;;;;;;30.83;15.68;;;24.00;99.90;;;;;;5067282;28;20048;-66
2023/07/11 07:01:01;;;;;;;26.27;14.20;;;24.20;99.90;;;;;;5030876;28;20037;-66
2023/07/11 07:03:28;;;;;;;35.63;16.25;;;24.50;98.90;;;;;;5051097;28;20178;-66
2023/07/11 07:05:59;;;;;;;27.63;13.95;;;24.70;97.90;;;;;;5058215;28;20748;-66
2023/07/11 07:08:25;;;;;;;26.40;14.27;;;24.90;97.90;;;;;;5050266;28;20125;-66
2023/07/11 07:10:52;;;;;;;29.48;13.85;;;25.20;95.80;;;;;;5066309;28;20043;-66
2023/07/11 07:13:20;;;;;;;28.80;14.32;;;25.40;95.30;;;;;;5056742;28;20057;-66
2023/07/11 07:15:49;;;;;;;31.08;13.77;;;25.70;94.80;;;;;;5037671;28;20025;-66
2023/07/11 07:18:15;;;;;;;26.63;12.73;;;25.90;93.00;;;;;;5053584;28;20431;-66
2023/07/11 07:20:43;;;;;;;24.55;13.35;;;26.20;92.10;;;;;;5065712;28;20035;-66
2023/07/11 07:23:09;;;;;;;19.45;11.70;;;26.40;92.20;;;;;;5070335;28;20363;-66
2023/07/11 07:25:36;;;;;;;24.75;11.80;;;26.80;92.00;;;;;;5073314;28;20055;-66
2023/07/11 07:28:03;;;;;;;26.00;12.25;;;26.90;91.70;;;;;;5054418;28;20033;-66
2023/07/11 07:30:31;;;;;;;16.63;10.55;;;27.20;92.50;;;;;;5072175;28;20547;-66
2023/07/11 07:32:58;;;;;;;12.38;9.65;;;27.40;91.40;;;;;;5065157;28;20089;-66
2023/07/11 07:35:24;;;;;;;18.73;10.50;;;27.50;88.90;;;;;;5069338;28;20020;-66
2023/07/11 07:37:50;;;;;;;26.50;13.30;;;27.50;88.10;;;;;;5044237;28;20040;-66
2023/07/11 07:40:16;;;;;;;15.27;9.35;;;27.70;85.50;;;;;;5053576;28;20082;-66
2023/07/11 07:42:42;;;;;;;16.80;9.25;;;28.00;84.30;;;;;;5069963;28;20025;-66
2023/07/11 07:45:08;;;;;;;15.88;8.45;;;28.40;86.30;;;;;;5070872;28;20060;-66
2023/07/11 07:47:35;;;;;;;19.83;9.93;;;28.60;77.30;;;;;;5071084;28;20318;-66
2023/07/11 07:50:02;;;;;;;21.88;11.20;;;28.90;79.90;;;;;;5061554;28;20029;-66
2023/07/11 07:52:28;;;;;;;14.77;9.52;;;29.00;74.90;;;;;;5069050;28;20064;-66
2023/07/11 07:54:54;;;;;;;55.63;9.90;;;29.20;74.00;;;;;;5068000;28;20056;-66
2023/07/11 07:57:20;;;;;;;17.85;7.80;;;29.40;73.20;;;;;;5050226;28;20037;-66
2023/07/11 07:59:46;;;;;;;26.15;8.90;;;29.40;66.20;;;;;;5066709;28;20054;-66
2023/07/11 08:02:13;;;;;;;16.38;8.30;;;29.70;67.20;;;;;;5070906;28;20056;-66
2023/07/11 08:04:39;;;;;;;11.40;7.85;;;30.00;65.70;;;;;;5074002;28;20033;-66
2023/07/11 08:07:05;;;;;;;15.30;7.82;;;29.70;61.00;;;;;;5056252;28;20054;-66
2023/07/11 08:09:31;;;;;;;23.20;8.68;;;30.00;63.60;;;;;;5074247;28;20028;-66
2023/07/11 08:12:05;;;;;;;9.20;7.38;;;30.10;63.30;;;;;;5073701;28;20424;-66
2023/07/11 08:14:35;;;;;;;14.38;8.13;;;29.70;65.00;;;;;;5074529;28;20025;-66
2023/07/11 08:17:01;;;;;;;13.65;8.50;;;29.60;66.50;;;;;;5074153;28;20047;-66
2023/07/11 08:19:27;;;;;;;12.25;8.07;;;30.20;63.00;;;;;;5073365;28;20016;-66
2023/07/11 08:21:53;;;;;;;16.17;8.15;;;30.30;61.80;;;;;;5073613;28;20031;-66
2023/07/11 08:24:22;;;;;;;14.32;8.13;;;30.60;65.40;;;;;;5073567;28;20067;-66
2023/07/11 08:26:50;;;;;;;;;;;30.70;59.40;;;;;;5071207;28;20031;-66
2023/07/11 08:29:18;;;;;;;15.77;8.63;;;30.70;61.70;;;;;;5074265;28;19912;-68
2023/07/11 08:31:46;;;;;;;14.93;7.88;;;30.70;59.80;;;;;;5073455;28;20028;-68
2023/07/11 08:34:12;;;;;;;13.02;7.65;;;31.20;63.80;;;;;;5057446;28;20362;-69
2023/07/11 08:36:38;;;;;;;14.20;7.35;;;31.70;60.90;;;;;;5068247;28;20020;-68
2023/07/11 08:39:05;;;;;;;35.20;9.32;;;32.00;58.10;;;;;;5059646;28;20032;-68
2023/07/11 08:41:49;;;;;;;16.65;7.65;;;32.20;57.80;;;;;;5078496;28;20024;-68
2023/07/11 08:44:44;;;;;;;21.88;9.15;;;32.20;50.70;;;;;;5078444;28;20029;-68
2023/07/11 08:47:23;;;;;;;20.05;9.15;;;32.40;50.80;;;;;;5077874;28;20058;-68
2023/07/11 08:49:57;;;;;;;20.33;7.53;;;32.60;52.70;;;;;;5076159;28;20032;-68
2023/07/11 08:52:25;;;;;;;14.82;7.95;;;32.90;52.80;;;;;;5077859;28;20107;-69
2023/07/11 08:55:00;;;;;;;17.85;7.80;;;33.20;49.80;;;;;;5068526;28;20052;-69
2023/07/11 08:57:29;;;;;;;13.43;7.72;;;33.50;50.00;;;;;;5066997;28;20470;-68
2023/07/11 09:00:05;;;;;;;16.40;7.88;;;33.50;54.00;;;;;;5077413;28;20086;-68
2023/07/11 09:03:16;;;;;;;14.20;6.80;;;33.30;52.70;;;;;;5077439;28;20508;-68
2023/07/11 09:06:00;;;;;;;13.38;7.25;;;33.80;53.20;;;;;;5032639;28;20064;-68
2023/07/11 09:08:26;;;;;;;19.30;8.15;;;34.10;47.70;;;;;;5077281;28;20106;-68
2023/07/11 09:11:45;;;;;;;12.40;7.15;;;34.00;50.90;;;;;;5077037;28;20020;-68
2023/07/11 09:14:14;;;;;;;20.20;7.73;;;33.70;51.50;;;;;;4995658;28;20026;-68
2023/07/11 09:17:06;;;;;;;10.48;6.82;;;34.10;47.60;;;;;;5071942;28;20277;-68
2023/07/11 09:19:54;;;;;;;22.02;7.38;;;34.30;51.90;;;;;;5077328;28;20029;-68
2023/07/11 09:22:41;;;;;;;16.10;7.53;;;34.60;46.10;;;;;;5077083;28;20111;-69
2023/07/11 09:25:19;;;;;;;23.67;8.60;;;34.80;45.40;;;;;;5077086;28;20074;-69
2023/07/11 09:28:06;;;;;;;33.47;9.63;;;35.00;46.90;;;;;;5077144;28;20029;-68
2023/07/11 09:30:46;;;;;;;30.27;9.82;;;35.00;45.10;;;;;;5076768;28;20029;-68
2023/07/11 09:33:22;;;;;;;27.02;9.20;;;35.30;45.50;;;;;;5076809;28;20032;-68
2023/07/11 09:35:51;;;;;;;20.20;8.32;;;35.10;41.70;;;;;;5077014;28;20064;-68
2023/07/11 09:38:27;;;;;;;20.45;10.00;;;34.90;47.60;;;;;;5076968;28;20046;-68
2023/07/11 09:41:13;;;;;;;23.77;8.88;;;34.90;42.90;;;;;;5076828;28;20048;-68
2023/07/11 09:43:39;;;;;;;24.38;9.60;;;35.20;50.30;;;;;;5076594;28;20050;-68
2023/07/11 09:46:25;;;;;;;20.02;8.38;;;35.60;46.00;;;;;;5075614;28;20080;-69
2023/07/11 09:48:56;;;;;;;10.65;6.80;;;36.00;40.10;;;;;;5076562;28;20103;-68
2023/07/11 09:51:39;;;;;;;17.25;8.73;;;36.00;39.80;;;;;;5058497;28;20377;-68
2023/07/11 09:54:21;;;;;;;23.00;8.10;;;36.10;36.80;;;;;;5062634;28;20474;-68
2023/07/11 09:56:49;;;;;;;22.58;9.30;;;36.30;38.80;;;;;;5074336;28;20462;-68
2023/07/11 09:59:17;;;;;;;18.17;8.35;;;36.20;39.20;;;;;;5076073;28;20033;-68
2023/07/11 10:01:42;;;;;;;23.88;8.45;;;36.10;38.30;;;;;;5058382;28;20039;-68
2023/07/11 10:04:14;;;;;;;20.83;8.77;;;36.50;39.10;;;;;;5076684;28;20032;-68
2023/07/11 10:06:53;;;;;;;19.00;8.25;;;36.50;41.00;;;;;;5076918;28;20092;-68
2023/07/11 10:09:36;;;;;;;18.92;8.30;;;36.50;40.00;;;;;;5076795;28;20032;-68
2023/07/11 10:12:15;;;;;;;22.67;9.25;;;36.50;41.60;;;;;;5076607;28;20108;-69
2023/07/11 10:14:44;;;;;;;18.55;7.80;;;36.70;38.00;;;;;;5076215;28;20060;-69
2023/07/11 10:17:25;;;;;;;49.83;10.48;;;36.90;38.30;;;;;;5076211;28;20035;-68
2023/07/11 10:19:56;;;;;;;18.70;8.80;;;37.00;41.40;;;;;;5076044;28;20028;-68
2023/07/11 10:22:28;;;;;;;18.27;8.85;;;37.00;38.40;;;;;;5076098;28;20283;-68
2023/07/11 10:25:26;;;;;;;22.23;8.82;;;37.20;37.50;;;;;;5076016;28;20488;-68
2023/07/11 10:28:01;;;;;;;19.88;8.30;;;37.30;34.90;;;;;;5076004;28;20031;-68
2023/07/11 10:30:32;;;;;;;33.47;9.77;;;37.50;32.90;;;;;;5075752;28;20500;-68
2023/07/11 10:33:26;;;;;;;31.00;9.23;;;37.60;35.30;;;;;;5075701;28;20393;-68
2023/07/11 10:36:20;;;;;;;15.95;8.63;;;38.00;35.90;;;;;;5047816;28;20088;-68
2023/07/11 10:38:54;;;;;;;16.25;7.55;;;37.50;35.90;;;;;;5071810;28;20048;-68
2023/07/11 10:41:35;;;;;;;16.20;7.35;;;37.40;36.80;;;;;;5075923;28;20032;-69
2023/07/11 10:44:07;;;;;;;41.78;9.20;;;38.00;35.50;;;;;;5075773;28;20029;-68
2023/07/11 10:46:45;;;;;;;18.23;7.55;;;38.10;35.00;;;;;;5076213;28;20032;-68
2023/07/11 10:49:36;;;;;;;15.90;7.70;;;38.40;33.80;;;;;;5068588;28;20568;-68
2023/07/11 10:52:13;;;;;;;21.90;8.85;;;38.40;33.80;;;;;;5065220;28;20078;-68
2023/07/11 10:54:42;;;;;;;18.90;8.52;;;38.60;32.60;;;;;;5064286;28;20120;-68
2023/07/11 10:57:38;;;;;;;13.57;7.97;;;38.40;34.30;;;;;;5066079;28;20048;-68
2023/07/11 11:00:20;;;;;;;13.90;7.60;;;37.70;32.80;;;;;;5062610;28;20167;-68
2023/07/11 11:03:16;;;;;;;14.05;8.32;;;37.40;34.60;;;;;;5050294;28;20356;-68
2023/07/11 11:05:50;;;;;;;14.77;7.90;;;37.50;31.40;;;;;;5070486;28;20035;-68
2023/07/11 11:08:28;;;;;;;17.88;8.00;;;38.00;30.70;;;;;;5067835;28;20051;-68
2023/07/11 11:11:09;;;;;;;12.68;7.07;;;38.20;34.00;;;;;;5066912;28;20029;-68
2023/07/11 11:13:54;;;;;;;11.90;7.30;;;37.80;35.80;;;;;;5067294;28;20043;-68
2023/07/11 11:16:36;;;;;;;13.60;7.30;;;37.70;30.30;;;;;;5067458;28;20028;-68
2023/07/11 11:19:30;;;;;;;11.55;7.05;;;37.60;35.40;;;;;;5069581;28;20104;-68
2023/07/11 11:22:08;;;;;;;13.30;8.80;;;37.60;35.20;;;;;;5066965;28;20394;-68
2023/07/11 11:24:46;;;;;;;12.73;8.25;;;37.80;31.40;;;;;;5071221;28;20059;-68
2023/07/11 11:27:36;;;;;;;12.98;8.07;;;37.90;36.40;;;;;;5071073;28;20047;-68
2023/07/11 11:30:14;;;;;;;18.40;8.57;;;37.60;38.60;;;;;;5047979;28;20032;-68
2023/07/11 11:32:53;;;;;;;17.60;8.43;;;36.60;32.70;;;;;;5056449;28;20341;-67
2023/07/11 11:35:51;;;;;;;13.70;8.50;;;37.50;34.10;;;;;;5054651;28;20437;-68
2023/07/11 11:38:27;;;;;;;16.45;9.05;;;37.50;28.70;;;;;;5031329;28;20049;-68
2023/07/11 11:40:58;;;;;;;14.98;8.35;;;37.90;33.30;;;;;;5057386;28;20054;-68
2023/07/11 11:43:26;;;;;;;16.65;8.60;;;37.80;33.50;;;;;;5074068;28;20033;-67
2023/07/11 11:45:53;;;;;;;13.07;8.15;;;37.30;32.80;;;;;;5073995;28;20031;-68
2023/07/11 11:48:30;;;;;;;13.88;8.55;;;37.70;31.40;;;;;;5056895;28;20036;-68
2023/07/11 11:50:58;;;;;;;14.63;8.75;;;37.80;31.20;;;;;;5074051;28;20028;-68
2023/07/11 11:53:32;;;;;;;14.60;8.10;;;38.00;31.20;;;;;;5074248;28;20025;-67
2023/07/11 11:56:08;;;;;;;12.73;8.45;;;37.50;30.00;;;;;;5073417;28;20074;-67
2023/07/11 11:58:49;;;;;;;17.65;7.75;;;37.80;32.70;;;;;;5070560;28;20490;-67
2023/07/11 12:01:36;;;;;;;11.77;7.13;;;37.90;32.50;;;;;;5069925;28;20088;-67
2023/07/11 12:04:49;;;;;;;12.93;6.50;;;37.70;31.70;;;;;;5074335;28;20032;-67
2023/07/11 12:07:23;;;;;;;64.40;10.35;;;37.70;32.30;;;;;;5072589;28;20045;-67
2023/07/11 12:09:52;;;;;;;28.10;9.05;;;38.20;36.90;;;;;;5070770;28;20051;-67
2023/07/11 12:12:25;;;;;;;18.42;7.63;;;38.60;29.60;;;;;;5056153;28;20029;-67
2023/07/11 12:14:51;;;;;;;13.27;6.63;;;38.50;33.90;;;;;;5073765;28;20052;-67
2023/07/11 12:17:29;;;;;;;15.63;7.15;;;38.70;32.30;;;;;;5074017;28;20079;-67
2023/07/11 12:20:01;;;;;;;13.80;6.68;;;38.50;33.60;;;;;;5073968;28;20094;-67
2023/07/11 12:22:30;;;;;;;11.23;7.38;;;38.40;29.00;;;;;;5073754;28;20024;-67
2023/07/11 12:25:10;;;;;;;13.52;7.63;;;38.30;34.40;;;;;;5074050;28;20032;-67
2023/07/11 12:27:36;;;;;;;;;;;38.00;29.20;;;;;;5074312;28;20032;-67
2023/07/11 12:30:27;;;;;;;16.15;8.68;;;38.10;33.90;;;;;;5073942;28;19968;-67
2023/07/11 12:32:54;;;;;;;12.50;7.72;;;38.10;31.00;;;;;;5073689;28;20021;-67
2023/07/11 12:35:37;;;;;;;14.25;7.85;;;38.30;35.30;;;;;;5067210;28;20036;-67
2023/07/11 12:38:19;;;;;;;11.73;7.45;;;38.30;34.70;;;;;;5064141;28;20035;-67
2023/07/11 12:41:15;;;;;;;15.27;7.68;;;38.30;35.30;;;;;;5052804;28;20059;-67
2023/07/11 12:43:46;;;;;;;12.15;6.70;;;38.30;35.50;;;;;;5060559;28;20032;-67
2023/07/11 12:46:18;;;;;;;20.25;8.75;;;38.50;34.50;;;;;;5058896;28;20033;-67
2023/07/11 12:48:47;;;;;;;9.93;6.53;;;38.20;29.70;;;;;;5069138;28;20060;-67
2023/07/11 12:51:34;;;;;;;15.40;6.72;;;38.20;31.70;;;;;;5093504;28;20077;-67
2023/07/11 12:54:09;;;;;;;12.30;6.38;;;38.20;31.60;;;;;;5073396;28;20772;-67